sensor_id;sensor_type;location;lat;lon;timestamp;P1;durP1;ratioP1;P2;durP2;ratioP2
50591;SDS011;36548;50.506;30.834;2023-05-19T00:01:18;8.72;;;7.00;;
50591;SDS011;36548;50.506;30.834;2023-05-19T00:02:34;7.22;;;6.50;;
50591;SDS011;36548;50.506;30.834;2023-05-19T00:03:52;9.62;;;6.57;;
50591;SDS011;36548;50.506;30.834;2023-05-19T00:05:11;7.53;;;6.75;;
50591;SDS011;36548;50.506;30.834;2023-05-19T00:06:24;9.62;;;6.62;;
50591;SDS011;36548;50.506;30.834;2023-05-19T00:07:41;7.45;;;6.60;;
50591;SDS011;36548;50.506;30.834;2023-05-19T00:10:16;8.37;;;6.55;;
50591;SDS011;36548;50.506;30.834;2023-05-19T00:11:27;7.20;;;6.15;;
50591;SDS011;36548;50.506;30.834;2023-05-19T00:13:04;8.98;;;6.62;;
50591;SDS011;36548;50.506;30.834;2023-05-19T00:14:13;6.65;;;5.95;;
50591;SDS011;36548;50.506;30.834;2023-05-19T00:15:30;8.27;;;6.92;;
50591;SDS011;36548;50.506;30.834;2023-05-19T00:16:40;10.43;;;6.67;;
50591;SDS011;36548;50.506;30.834;2023-05-19T00:17:56;8.32;;;6.52;;
50591;SDS011;36548;50.506;30.834;2023-05-19T00:19:07;8.60;;;6.17;;
50591;SDS011;36548;50.506;30.834;2023-05-19T00:20:25;10.15;;;6.60;;
50591;SDS011;36548;50.506;30.834;2023-05-19T00:21:35;8.87;;;6.63;;
50591;SDS011;36548;50.506;30.834;2023-05-19T00:22:53;7.92;;;7.10;;
50591;SDS011;36548;50.506;30.834;2023-05-19T00:24:03;6.75;;;5.78;;
50591;SDS011;36548;50.506;30.834;2023-05-19T00:25:26;8.22;;;6.22;;
50591;SDS011;36548;50.506;30.834;2023-05-19T00:26:36;7.20;;;6.20;;
50591;SDS011;36548;50.506;30.834;2023-05-19T00:27:46;12.45;;;6.40;;
50591;SDS011;36548;50.506;30.834;2023-05-19T00:29:01;7.73;;;5.97;;
50591;SDS011;36548;50.506;30.834;2023-05-19T00:30:10;7.57;;;6.28;;
50591;SDS011;36548;50.506;30.834;2023-05-19T00:31:33;8.95;;;6.23;;
50591;SDS011;36548;50.506;30.834;2023-05-19T00:32:42;6.17;;;5.23;;
50591;SDS011;36548;50.506;30.834;2023-05-19T00:33:58;7.02;;;5.97;;
50591;SDS011;36548;50.506;30.834;2023-05-19T00:35:08;6.77;;;6.13;;
50591;SDS011;36548;50.506;30.834;2023-05-19T00:36:23;9.17;;;5.60;;
50591;SDS011;36548;50.506;30.834;2023-05-19T00:37:33;7.55;;;5.70;;
50591;SDS011;36548;50.506;30.834;2023-05-19T00:38:48;8.28;;;5.35;;
50591;SDS011;36548;50.506;30.834;2023-05-19T00:40:00;6.42;;;5.57;;
50591;SDS011;36548;50.506;30.834;2023-05-19T00:41:16;7.02;;;5.13;;
50591;SDS011;36548;50.506;30.834;2023-05-19T00:42:26;6.60;;;5.35;;
50591;SDS011;36548;50.506;30.834;2023-05-19T00:43:41;11.22;;;5.45;;
50591;SDS011;36548;50.506;30.834;2023-05-19T00:44:51;7.33;;;5.15;;
50591;SDS011;36548;50.506;30.834;2023-05-19T00:46:01;8.82;;;5.80;;
50591;SDS011;36548;50.506;30.834;2023-05-19T00:47:16;6.45;;;5.43;;
50591;SDS011;36548;50.506;30.834;2023-05-19T00:48:25;7.65;;;5.13;;
50591;SDS011;36548;50.506;30.834;2023-05-19T00:49:35;6.95;;;5.20;;
50591;SDS011;36548;50.506;30.834;2023-05-19T00:50:45;9.00;;;5.35;;
50591;SDS011;36548;50.506;30.834;2023-05-19T00:51:56;6.47;;;4.87;;
50591;SDS011;36548;50.506;30.834;2023-05-19T00:53:06;7.70;;;5.22;;
50591;SDS011;36548;50.506;30.834;2023-05-19T00:54:21;7.08;;;5.00;;
50591;SDS011;36548;50.506;30.834;2023-05-19T00:55:32;5.80;;;4.55;;
50591;SDS011;36548;50.506;30.834;2023-05-19T00:56:48;8.82;;;5.08;;
50591;SDS011;36548;50.506;30.834;2023-05-19T00:57:58;5.17;;;4.67;;
50591;SDS011;36548;50.506;30.834;2023-05-19T00:59:08;5.05;;;4.53;;
50591;SDS011;36548;50.506;30.834;2023-05-19T01:00:23;5.17;;;4.28;;
50591;SDS011;36548;50.506;30.834;2023-05-19T01:01:33;6.07;;;4.50;;
50591;SDS011;36548;50.506;30.834;2023-05-19T01:02:49;5.90;;;4.70;;
50591;SDS011;36548;50.506;30.834;2023-05-19T01:03:59;5.13;;;4.55;;
50591;SDS011;36548;50.506;30.834;2023-05-19T01:05:15;5.92;;;4.75;;
50591;SDS011;36548;50.506;30.834;2023-05-19T01:06:24;9.53;;;4.75;;
50591;SDS011;36548;50.506;30.834;2023-05-19T01:07:42;8.55;;;4.88;;
50591;SDS011;36548;50.506;30.834;2023-05-19T01:10:01;6.42;;;4.68;;
50591;SDS011;36548;50.506;30.834;2023-05-19T01:11:17;6.43;;;4.95;;
50591;SDS011;36548;50.506;30.834;2023-05-19T01:12:28;6.35;;;4.37;;
50591;SDS011;36548;50.506;30.834;2023-05-19T01:13:45;6.60;;;4.72;;
50591;SDS011;36548;50.506;30.834;2023-05-19T01:14:56;4.55;;;4.15;;
50591;SDS011;36548;50.506;30.834;2023-05-19T01:16:29;5.60;;;4.73;;
50591;SDS011;36548;50.506;30.834;2023-05-19T01:20:23;8.05;;;4.30;;
50591;SDS011;36548;50.506;30.834;2023-05-19T01:23:11;5.53;;;4.22;;
50591;SDS011;36548;50.506;30.834;2023-05-19T01:26:15;6.27;;;4.75;;
50591;SDS011;36548;50.506;30.834;2023-05-19T01:27:39;7.20;;;4.70;;
50591;SDS011;36548;50.506;30.834;2023-05-19T01:30:35;4.60;;;4.17;;
50591;SDS011;36548;50.506;30.834;2023-05-19T01:31:46;6.27;;;4.68;;
50591;SDS011;36548;50.506;30.834;2023-05-19T01:33:08;6.02;;;5.03;;
50591;SDS011;36548;50.506;30.834;2023-05-19T01:34:19;5.73;;;4.68;;
50591;SDS011;36548;50.506;30.834;2023-05-19T01:35:31;5.33;;;4.63;;
50591;SDS011;36548;50.506;30.834;2023-05-19T01:36:44;6.70;;;4.50;;
50591;SDS011;36548;50.506;30.834;2023-05-19T01:38:06;6.30;;;4.60;;
50591;SDS011;36548;50.506;30.834;2023-05-19T01:39:16;7.28;;;4.48;;
50591;SDS011;36548;50.506;30.834;2023-05-19T01:40:34;5.93;;;4.50;;
50591;SDS011;36548;50.506;30.834;2023-05-19T01:41:45;4.65;;;4.12;;
50591;SDS011;36548;50.506;30.834;2023-05-19T01:43:02;5.30;;;4.77;;
50591;SDS011;36548;50.506;30.834;2023-05-19T01:44:12;4.90;;;4.30;;
50591;SDS011;36548;50.506;30.834;2023-05-19T01:45:23;6.65;;;4.23;;
50591;SDS011;36548;50.506;30.834;2023-05-19T01:46:39;4.65;;;4.13;;
50591;SDS011;36548;50.506;30.834;2023-05-19T01:47:50;6.10;;;3.96;;
50591;SDS011;36548;50.506;30.834;2023-05-19T01:49:02;6.98;;;4.42;;
50591;SDS011;36548;50.506;30.834;2023-05-19T01:50:13;7.37;;;4.43;;
50591;SDS011;36548;50.506;30.834;2023-05-19T01:51:23;6.97;;;4.20;;
50591;SDS011;36548;50.506;30.834;2023-05-19T01:52:38;7.98;;;4.37;;
50591;SDS011;36548;50.506;30.834;2023-05-19T01:53:48;6.20;;;4.88;;
50591;SDS011;36548;50.506;30.834;2023-05-19T01:54:58;5.55;;;4.05;;
50591;SDS011;36548;50.506;30.834;2023-05-19T01:56:15;7.35;;;4.35;;
50591;SDS011;36548;50.506;30.834;2023-05-19T01:58:56;7.05;;;4.65;;
50591;SDS011;36548;50.506;30.834;2023-05-19T02:01:36;6.90;;;4.40;;
50591;SDS011;36548;50.506;30.834;2023-05-19T02:04:21;5.53;;;3.90;;
50591;SDS011;36548;50.506;30.834;2023-05-19T02:05:39;6.20;;;4.60;;
50591;SDS011;36548;50.506;30.834;2023-05-19T02:07:01;7.40;;;4.15;;
50591;SDS011;36548;50.506;30.834;2023-05-19T02:09:48;5.40;;;4.22;;
50591;SDS011;36548;50.506;30.834;2023-05-19T02:11:06;4.45;;;3.70;;
50591;SDS011;36548;50.506;30.834;2023-05-19T02:12:27;6.58;;;4.33;;
50591;SDS011;36548;50.506;30.834;2023-05-19T02:13:43;6.68;;;4.30;;
50591;SDS011;36548;50.506;30.834;2023-05-19T02:15:20;5.08;;;4.02;;
50591;SDS011;36548;50.506;30.834;2023-05-19T02:16:36;5.45;;;3.95;;
50591;SDS011;36548;50.506;30.834;2023-05-19T02:17:48;5.55;;;4.08;;
50591;SDS011;36548;50.506;30.834;2023-05-19T02:19:18;6.15;;;4.40;;
50591;SDS011;36548;50.506;30.834;2023-05-19T02:20:21;6.28;;;3.92;;
50591;SDS011;36548;50.506;30.834;2023-05-19T02:21:30;7.17;;;4.00;;
50591;SDS011;36548;50.506;30.834;2023-05-19T02:22:39;4.47;;;3.85;;
50591;SDS011;36548;50.506;30.834;2023-05-19T02:23:56;5.42;;;4.03;;
50591;SDS011;36548;50.506;30.834;2023-05-19T02:25:06;7.38;;;4.75;;
50591;SDS011;36548;50.506;30.834;2023-05-19T02:26:23;5.17;;;4.12;;
50591;SDS011;36548;50.506;30.834;2023-05-19T02:27:34;4.77;;;3.63;;
50591;SDS011;36548;50.506;30.834;2023-05-19T02:28:47;7.70;;;4.17;;
50591;SDS011;36548;50.506;30.834;2023-05-19T02:30:05;4.17;;;3.78;;
50591;SDS011;36548;50.506;30.834;2023-05-19T02:31:17;5.68;;;4.22;;
50591;SDS011;36548;50.506;30.834;2023-05-19T02:32:32;5.52;;;4.05;;
50591;SDS011;36548;50.506;30.834;2023-05-19T02:33:41;4.82;;;3.80;;
50591;SDS011;36548;50.506;30.834;2023-05-19T02:34:51;5.50;;;4.20;;
50591;SDS011;36548;50.506;30.834;2023-05-19T02:36:06;5.45;;;4.70;;
50591;SDS011;36548;50.506;30.834;2023-05-19T02:37:17;6.22;;;3.77;;
50591;SDS011;36548;50.506;30.834;2023-05-19T02:38:26;7.50;;;4.28;;
50591;SDS011;36548;50.506;30.834;2023-05-19T02:39:42;6.47;;;3.90;;
50591;SDS011;36548;50.506;30.834;2023-05-19T02:40:53;6.04;;;4.20;;
50591;SDS011;36548;50.506;30.834;2023-05-19T02:42:09;4.87;;;3.93;;
50591;SDS011;36548;50.506;30.834;2023-05-19T02:43:19;5.35;;;4.30;;
50591;SDS011;36548;50.506;30.834;2023-05-19T02:44:41;6.25;;;4.55;;
50591;SDS011;36548;50.506;30.834;2023-05-19T02:45:52;4.32;;;3.90;;
50591;SDS011;36548;50.506;30.834;2023-05-19T02:47:02;5.43;;;4.27;;
50591;SDS011;36548;50.506;30.834;2023-05-19T02:48:12;6.30;;;4.25;;
50591;SDS011;36548;50.506;30.834;2023-05-19T02:49:27;8.63;;;5.10;;
50591;SDS011;36548;50.506;30.834;2023-05-19T02:50:41;5.48;;;4.42;;
50591;SDS011;36548;50.506;30.834;2023-05-19T02:51:50;7.27;;;4.55;;
50591;SDS011;36548;50.506;30.834;2023-05-19T02:53:05;6.58;;;4.27;;
50591;SDS011;36548;50.506;30.834;2023-05-19T02:54:14;5.33;;;4.03;;
50591;SDS011;36548;50.506;30.834;2023-05-19T02:55:29;7.93;;;4.63;;
50591;SDS011;36548;50.506;30.834;2023-05-19T02:56:39;6.10;;;4.60;;
50591;SDS011;36548;50.506;30.834;2023-05-19T03:00:10;5.35;;;4.55;;
50591;SDS011;36548;50.506;30.834;2023-05-19T03:01:19;6.32;;;4.32;;
50591;SDS011;36548;50.506;30.834;2023-05-19T03:02:36;5.75;;;4.23;;
50591;SDS011;36548;50.506;30.834;2023-05-19T03:03:46;4.98;;;4.05;;
50591;SDS011;36548;50.506;30.834;2023-05-19T03:05:01;5.22;;;4.15;;
50591;SDS011;36548;50.506;30.834;2023-05-19T03:06:11;5.05;;;4.37;;
50591;SDS011;36548;50.506;30.834;2023-05-19T03:07:22;4.45;;;3.98;;
50591;SDS011;36548;50.506;30.834;2023-05-19T03:08:41;7.30;;;4.40;;
50591;SDS011;36548;50.506;30.834;2023-05-19T03:09:51;5.10;;;4.20;;
50591;SDS011;36548;50.506;30.834;2023-05-19T03:11:01;5.40;;;4.30;;
50591;SDS011;36548;50.506;30.834;2023-05-19T03:12:17;6.92;;;5.25;;
50591;SDS011;36548;50.506;30.834;2023-05-19T03:13:27;6.75;;;3.90;;
50591;SDS011;36548;50.506;30.834;2023-05-19T03:14:37;6.10;;;3.85;;
50591;SDS011;36548;50.506;30.834;2023-05-19T03:16:59;8.52;;;4.77;;
50591;SDS011;36548;50.506;30.834;2023-05-19T03:18:08;6.95;;;4.03;;
50591;SDS011;36548;50.506;30.834;2023-05-19T03:19:26;4.70;;;3.90;;
50591;SDS011;36548;50.506;30.834;2023-05-19T03:20:35;7.20;;;3.93;;
50591;SDS011;36548;50.506;30.834;2023-05-19T03:21:46;5.52;;;3.85;;
50591;SDS011;36548;50.506;30.834;2023-05-19T03:22:58;7.25;;;4.40;;
50591;SDS011;36548;50.506;30.834;2023-05-19T03:24:08;6.15;;;4.55;;
50591;SDS011;36548;50.506;30.834;2023-05-19T03:25:19;4.55;;;4.05;;
50591;SDS011;36548;50.506;30.834;2023-05-19T03:26:29;7.15;;;4.05;;
50591;SDS011;36548;50.506;30.834;2023-05-19T03:27:39;6.50;;;4.30;;
50591;SDS011;36548;50.506;30.834;2023-05-19T03:28:48;5.28;;;4.02;;
50591;SDS011;36548;50.506;30.834;2023-05-19T03:30:03;6.98;;;4.40;;
50591;SDS011;36548;50.506;30.834;2023-05-19T03:31:16;5.85;;;4.28;;
50591;SDS011;36548;50.506;30.834;2023-05-19T03:32:31;4.97;;;3.87;;
50591;SDS011;36548;50.506;30.834;2023-05-19T03:33:40;6.88;;;4.40;;
50591;SDS011;36548;50.506;30.834;2023-05-19T03:34:50;5.47;;;3.37;;
50591;SDS011;36548;50.506;30.834;2023-05-19T03:36:01;5.82;;;3.88;;
50591;SDS011;36548;50.506;30.834;2023-05-19T03:37:18;7.93;;;3.85;;
50591;SDS011;36548;50.506;30.834;2023-05-19T03:38:27;7.63;;;3.75;;
50591;SDS011;36548;50.506;30.834;2023-05-19T03:39:42;5.00;;;4.03;;
50591;SDS011;36548;50.506;30.834;2023-05-19T03:40:52;4.28;;;3.72;;
50591;SDS011;36548;50.506;30.834;2023-05-19T03:42:01;5.05;;;3.90;;
50591;SDS011;36548;50.506;30.834;2023-05-19T03:43:17;5.73;;;3.70;;
50591;SDS011;36548;50.506;30.834;2023-05-19T03:44:27;9.62;;;3.70;;
50591;SDS011;36548;50.506;30.834;2023-05-19T03:45:43;6.10;;;3.45;;
50591;SDS011;36548;50.506;30.834;2023-05-19T03:46:57;6.28;;;3.77;;
50591;SDS011;36548;50.506;30.834;2023-05-19T03:48:09;4.03;;;3.38;;
50591;SDS011;36548;50.506;30.834;2023-05-19T03:49:24;6.00;;;3.75;;
50591;SDS011;36548;50.506;30.834;2023-05-19T03:51:28;9.97;;;3.98;;
50591;SDS011;36548;50.506;30.834;2023-05-19T03:53:20;4.02;;;3.60;;
50591;SDS011;36548;50.506;30.834;2023-05-19T03:54:36;4.23;;;3.82;;
50591;SDS011;36548;50.506;30.834;2023-05-19T03:55:46;4.72;;;3.50;;
50591;SDS011;36548;50.506;30.834;2023-05-19T03:57:03;7.90;;;3.95;;
50591;SDS011;36548;50.506;30.834;2023-05-19T03:58:13;6.10;;;4.20;;
50591;SDS011;36548;50.506;30.834;2023-05-19T03:59:22;5.77;;;3.72;;
50591;SDS011;36548;50.506;30.834;2023-05-19T04:00:32;7.90;;;4.20;;
50591;SDS011;36548;50.506;30.834;2023-05-19T04:01:42;6.00;;;3.70;;
50591;SDS011;36548;50.506;30.834;2023-05-19T04:02:57;9.10;;;4.13;;
50591;SDS011;36548;50.506;30.834;2023-05-19T04:04:08;5.92;;;3.63;;
50591;SDS011;36548;50.506;30.834;2023-05-19T04:05:23;6.05;;;3.40;;
50591;SDS011;36548;50.506;30.834;2023-05-19T04:06:32;5.87;;;4.18;;
50591;SDS011;36548;50.506;30.834;2023-05-19T04:07:47;6.72;;;3.38;;
50591;SDS011;36548;50.506;30.834;2023-05-19T04:08:56;5.40;;;3.47;;
50591;SDS011;36548;50.506;30.834;2023-05-19T04:10:12;6.70;;;3.45;;
50591;SDS011;36548;50.506;30.834;2023-05-19T04:11:21;9.55;;;4.05;;
50591;SDS011;36548;50.506;30.834;2023-05-19T04:12:37;5.78;;;4.23;;
50591;SDS011;36548;50.506;30.834;2023-05-19T04:13:47;5.65;;;4.60;;
50591;SDS011;36548;50.506;30.834;2023-05-19T04:14:57;3.97;;;3.53;;
50591;SDS011;36548;50.506;30.834;2023-05-19T04:16:07;5.55;;;3.85;;
50591;SDS011;36548;50.506;30.834;2023-05-19T04:17:17;7.50;;;4.35;;
50591;SDS011;36548;50.506;30.834;2023-05-19T04:18:32;5.50;;;4.12;;
50591;SDS011;36548;50.506;30.834;2023-05-19T04:19:41;5.52;;;4.53;;
50591;SDS011;36548;50.506;30.834;2023-05-19T04:20:56;5.33;;;4.50;;
50591;SDS011;36548;50.506;30.834;2023-05-19T04:22:06;7.42;;;5.23;;
50591;SDS011;36548;50.506;30.834;2023-05-19T04:23:21;5.87;;;4.43;;
50591;SDS011;36548;50.506;30.834;2023-05-19T04:24:30;7.15;;;4.85;;
50591;SDS011;36548;50.506;30.834;2023-05-19T04:25:47;4.65;;;4.17;;
50591;SDS011;36548;50.506;30.834;2023-05-19T04:26:57;8.70;;;4.25;;
50591;SDS011;36548;50.506;30.834;2023-05-19T04:28:15;6.68;;;4.63;;
50591;SDS011;36548;50.506;30.834;2023-05-19T04:29:24;9.95;;;5.03;;
50591;SDS011;36548;50.506;30.834;2023-05-19T04:30:41;5.20;;;3.78;;
50591;SDS011;36548;50.506;30.834;2023-05-19T04:31:50;4.85;;;4.28;;
50591;SDS011;36548;50.506;30.834;2023-05-19T04:33:00;6.82;;;3.87;;
50591;SDS011;36548;50.506;30.834;2023-05-19T04:34:17;6.38;;;3.82;;
50591;SDS011;36548;50.506;30.834;2023-05-19T04:35:27;7.15;;;4.00;;
50591;SDS011;36548;50.506;30.834;2023-05-19T04:36:37;4.60;;;3.40;;
50591;SDS011;36548;50.506;30.834;2023-05-19T04:37:53;6.17;;;3.80;;
50591;SDS011;36548;50.506;30.834;2023-05-19T04:39:04;5.12;;;4.00;;
50591;SDS011;36548;50.506;30.834;2023-05-19T04:40:21;9.67;;;3.77;;
50591;SDS011;36548;50.506;30.834;2023-05-19T04:41:32;5.37;;;3.38;;
50591;SDS011;36548;50.506;30.834;2023-05-19T04:44:05;5.22;;;4.02;;
50591;SDS011;36548;50.506;30.834;2023-05-19T04:45:18;6.10;;;4.27;;
50591;SDS011;36548;50.506;30.834;2023-05-19T04:46:35;6.68;;;4.42;;
50591;SDS011;36548;50.506;30.834;2023-05-19T04:47:45;4.80;;;4.08;;
50591;SDS011;36548;50.506;30.834;2023-05-19T04:49:02;6.70;;;3.95;;
50591;SDS011;36548;50.506;30.834;2023-05-19T04:50:14;5.43;;;3.90;;
50591;SDS011;36548;50.506;30.834;2023-05-19T04:51:24;6.32;;;3.85;;
50591;SDS011;36548;50.506;30.834;2023-05-19T04:52:43;5.67;;;3.70;;
50591;SDS011;36548;50.506;30.834;2023-05-19T04:53:55;4.82;;;3.70;;
50591;SDS011;36548;50.506;30.834;2023-05-19T04:55:12;5.80;;;3.93;;
50591;SDS011;36548;50.506;30.834;2023-05-19T04:56:22;5.00;;;3.95;;
50591;SDS011;36548;50.506;30.834;2023-05-19T04:57:32;9.55;;;4.50;;
50591;SDS011;36548;50.506;30.834;2023-05-19T04:58:47;5.37;;;4.28;;
50591;SDS011;36548;50.506;30.834;2023-05-19T04:59:57;4.70;;;3.93;;
50591;SDS011;36548;50.506;30.834;2023-05-19T05:01:15;5.25;;;4.10;;
50591;SDS011;36548;50.506;30.834;2023-05-19T05:02:25;4.92;;;4.00;;
50591;SDS011;36548;50.506;30.834;2023-05-19T05:03:43;6.22;;;3.88;;
50591;SDS011;36548;50.506;30.834;2023-05-19T05:04:53;6.30;;;3.90;;
50591;SDS011;36548;50.506;30.834;2023-05-19T05:06:10;4.10;;;3.33;;
50591;SDS011;36548;50.506;30.834;2023-05-19T05:07:20;5.70;;;3.95;;
50591;SDS011;36548;50.506;30.834;2023-05-19T05:08:37;7.07;;;4.23;;
50591;SDS011;36548;50.506;30.834;2023-05-19T05:09:48;5.83;;;3.83;;
50591;SDS011;36548;50.506;30.834;2023-05-19T05:11:06;7.75;;;4.60;;
50591;SDS011;36548;50.506;30.834;2023-05-19T05:13:32;7.50;;;4.13;;
50591;SDS011;36548;50.506;30.834;2023-05-19T05:14:42;4.95;;;4.37;;
50591;SDS011;36548;50.506;30.834;2023-05-19T05:15:57;5.60;;;3.77;;
50591;SDS011;36548;50.506;30.834;2023-05-19T05:17:07;5.13;;;4.07;;
50591;SDS011;36548;50.506;30.834;2023-05-19T05:18:24;5.13;;;4.03;;
50591;SDS011;36548;50.506;30.834;2023-05-19T05:19:34;5.10;;;3.80;;
50591;SDS011;36548;50.506;30.834;2023-05-19T05:20:50;6.57;;;3.97;;
50591;SDS011;36548;50.506;30.834;2023-05-19T05:23:16;7.97;;;4.52;;
50591;SDS011;36548;50.506;30.834;2023-05-19T05:25:38;7.55;;;3.95;;
50591;SDS011;36548;50.506;30.834;2023-05-19T05:26:56;4.08;;;3.48;;
50591;SDS011;36548;50.506;30.834;2023-05-19T05:29:22;6.73;;;4.53;;
50591;SDS011;36548;50.506;30.834;2023-05-19T05:30:37;5.43;;;3.55;;
50591;SDS011;36548;50.506;30.834;2023-05-19T05:31:47;7.60;;;3.50;;
50591;SDS011;36548;50.506;30.834;2023-05-19T05:32:57;5.02;;;3.77;;
50591;SDS011;36548;50.506;30.834;2023-05-19T05:34:11;11.00;;;8.88;;
50591;SDS011;36548;50.506;30.834;2023-05-19T05:35:27;6.32;;;3.65;;
50591;SDS011;36548;50.506;30.834;2023-05-19T05:36:36;4.65;;;3.80;;
50591;SDS011;36548;50.506;30.834;2023-05-19T05:37:52;4.68;;;3.88;;
50591;SDS011;36548;50.506;30.834;2023-05-19T05:39:01;4.62;;;3.25;;
50591;SDS011;36548;50.506;30.834;2023-05-19T05:40:18;8.07;;;3.45;;
50591;SDS011;36548;50.506;30.834;2023-05-19T05:41:28;4.42;;;3.90;;
50591;SDS011;36548;50.506;30.834;2023-05-19T05:42:46;5.08;;;3.27;;
50591;SDS011;36548;50.506;30.834;2023-05-19T05:43:56;4.33;;;3.40;;
50591;SDS011;36548;50.506;30.834;2023-05-19T05:45:11;7.25;;;3.62;;
50591;SDS011;36548;50.506;30.834;2023-05-19T05:46:21;4.30;;;3.55;;
50591;SDS011;36548;50.506;30.834;2023-05-19T05:47:32;5.05;;;3.10;;
50591;SDS011;36548;50.506;30.834;2023-05-19T05:48:43;3.77;;;3.47;;
50591;SDS011;36548;50.506;30.834;2023-05-19T05:49:53;4.70;;;3.23;;
50591;SDS011;36548;50.506;30.834;2023-05-19T05:51:08;5.62;;;3.47;;
50591;SDS011;36548;50.506;30.834;2023-05-19T05:52:17;6.07;;;3.33;;
50591;SDS011;36548;50.506;30.834;2023-05-19T05:53:39;5.17;;;3.27;;
50591;SDS011;36548;50.506;30.834;2023-05-19T05:54:53;5.83;;;3.20;;
50591;SDS011;36548;50.506;30.834;2023-05-19T05:56:06;4.10;;;3.53;;
50591;SDS011;36548;50.506;30.834;2023-05-19T05:57:23;5.40;;;3.60;;
50591;SDS011;36548;50.506;30.834;2023-05-19T05:58:32;6.87;;;3.57;;
50591;SDS011;36548;50.506;30.834;2023-05-19T05:59:49;3.53;;;3.17;;
50591;SDS011;36548;50.506;30.834;2023-05-19T06:00:59;5.10;;;3.60;;
50591;SDS011;36548;50.506;30.834;2023-05-19T06:02:10;5.25;;;3.75;;
50591;SDS011;36548;50.506;30.834;2023-05-19T06:03:25;3.67;;;3.20;;
50591;SDS011;36548;50.506;30.834;2023-05-19T06:04:36;4.77;;;3.02;;
50591;SDS011;36548;50.506;30.834;2023-05-19T06:05:51;6.32;;;3.53;;
50591;SDS011;36548;50.506;30.834;2023-05-19T06:07:01;6.00;;;3.40;;
50591;SDS011;36548;50.506;30.834;2023-05-19T06:08:17;5.42;;;3.62;;
50591;SDS011;36548;50.506;30.834;2023-05-19T06:10:43;4.87;;;3.30;;
50591;SDS011;36548;50.506;30.834;2023-05-19T06:11:56;5.78;;;3.87;;
50591;SDS011;36548;50.506;30.834;2023-05-19T06:13:12;6.75;;;3.55;;
50591;SDS011;36548;50.506;30.834;2023-05-19T06:14:24;7.57;;;4.18;;
50591;SDS011;36548;50.506;30.834;2023-05-19T06:15:39;10.02;;;8.70;;
50591;SDS011;36548;50.506;30.834;2023-05-19T06:16:52;5.63;;;4.32;;
50591;SDS011;36548;50.506;30.834;2023-05-19T06:18:08;5.23;;;4.00;;
50591;SDS011;36548;50.506;30.834;2023-05-19T06:19:17;5.73;;;3.50;;
50591;SDS011;36548;50.506;30.834;2023-05-19T06:20:33;8.05;;;3.78;;
50591;SDS011;36548;50.506;30.834;2023-05-19T06:21:43;4.25;;;3.40;;
50591;SDS011;36548;50.506;30.834;2023-05-19T06:22:59;4.78;;;3.48;;
50591;SDS011;36548;50.506;30.834;2023-05-19T06:24:09;4.60;;;3.65;;
50591;SDS011;36548;50.506;30.834;2023-05-19T06:25:20;7.30;;;4.08;;
50591;SDS011;36548;50.506;30.834;2023-05-19T06:26:35;6.97;;;3.85;;
50591;SDS011;36548;50.506;30.834;2023-05-19T06:27:45;5.80;;;3.30;;
50591;SDS011;36548;50.506;30.834;2023-05-19T06:29:00;4.80;;;3.48;;
50591;SDS011;36548;50.506;30.834;2023-05-19T06:30:10;5.67;;;3.48;;
50591;SDS011;36548;50.506;30.834;2023-05-19T06:31:27;5.20;;;4.13;;
50591;SDS011;36548;50.506;30.834;2023-05-19T06:32:38;8.28;;;4.60;;
50591;SDS011;36548;50.506;30.834;2023-05-19T06:33:54;5.22;;;3.48;;
50591;SDS011;36548;50.506;30.834;2023-05-19T06:35:03;5.50;;;3.27;;
50591;SDS011;36548;50.506;30.834;2023-05-19T06:36:18;5.75;;;3.83;;
50591;SDS011;36548;50.506;30.834;2023-05-19T06:37:28;5.18;;;3.87;;
50591;SDS011;36548;50.506;30.834;2023-05-19T06:38:43;4.48;;;3.33;;
50591;SDS011;36548;50.506;30.834;2023-05-19T06:39:52;4.17;;;3.77;;
50591;SDS011;36548;50.506;30.834;2023-05-19T06:41:08;3.80;;;3.40;;
50591;SDS011;36548;50.506;30.834;2023-05-19T06:42:20;7.68;;;3.60;;
50591;SDS011;36548;50.506;30.834;2023-05-19T06:43:36;4.33;;;3.27;;
50591;SDS011;36548;50.506;30.834;2023-05-19T06:44:44;4.02;;;3.37;;
50591;SDS011;36548;50.506;30.834;2023-05-19T06:46:01;6.60;;;3.58;;
50591;SDS011;36548;50.506;30.834;2023-05-19T06:47:15;7.15;;;4.00;;
50591;SDS011;36548;50.506;30.834;2023-05-19T06:48:31;5.30;;;3.43;;
50591;SDS011;36548;50.506;30.834;2023-05-19T06:49:40;5.75;;;3.63;;
50591;SDS011;36548;50.506;30.834;2023-05-19T06:50:56;6.30;;;3.93;;
50591;SDS011;36548;50.506;30.834;2023-05-19T06:52:05;4.90;;;3.27;;
50591;SDS011;36548;50.506;30.834;2023-05-19T06:53:20;4.92;;;3.72;;
50591;SDS011;36548;50.506;30.834;2023-05-19T06:55:40;4.76;;;3.80;;
50591;SDS011;36548;50.506;30.834;2023-05-19T06:56:56;6.78;;;3.88;;
50591;SDS011;36548;50.506;30.834;2023-05-19T06:58:06;6.95;;;4.05;;
50591;SDS011;36548;50.506;30.834;2023-05-19T06:59:16;7.55;;;3.92;;
50591;SDS011;36548;50.506;30.834;2023-05-19T07:00:26;7.15;;;3.87;;
50591;SDS011;36548;50.506;30.834;2023-05-19T07:01:36;5.25;;;3.70;;
50591;SDS011;36548;50.506;30.834;2023-05-19T07:02:52;6.03;;;3.77;;
50591;SDS011;36548;50.506;30.834;2023-05-19T07:04:02;6.10;;;3.90;;
50591;SDS011;36548;50.506;30.834;2023-05-19T07:07:31;5.15;;;3.78;;
50591;SDS011;36548;50.506;30.834;2023-05-19T07:08:41;4.47;;;3.68;;
50591;SDS011;36548;50.506;30.834;2023-05-19T07:11:04;5.25;;;3.37;;
50591;SDS011;36548;50.506;30.834;2023-05-19T07:12:19;5.97;;;3.52;;
50591;SDS011;36548;50.506;30.834;2023-05-19T07:13:29;4.20;;;3.60;;
50591;SDS011;36548;50.506;30.834;2023-05-19T07:14:46;4.75;;;3.73;;
50591;SDS011;36548;50.506;30.834;2023-05-19T07:15:56;5.22;;;4.07;;
50591;SDS011;36548;50.506;30.834;2023-05-19T07:17:11;8.88;;;7.20;;
50591;SDS011;36548;50.506;30.834;2023-05-19T07:18:23;5.78;;;4.73;;
50591;SDS011;36548;50.506;30.834;2023-05-19T07:19:38;5.17;;;3.60;;
50591;SDS011;36548;50.506;30.834;2023-05-19T07:20:48;5.55;;;3.42;;
50591;SDS011;36548;50.506;30.834;2023-05-19T07:22:06;10.07;;;9.07;;
50591;SDS011;36548;50.506;30.834;2023-05-19T07:23:17;5.15;;;4.15;;
50591;SDS011;36548;50.506;30.834;2023-05-19T07:25:42;4.05;;;3.40;;
50591;SDS011;36548;50.506;30.834;2023-05-19T07:26:51;4.18;;;3.57;;
50591;SDS011;36548;50.506;30.834;2023-05-19T07:28:08;3.35;;;3.00;;
50591;SDS011;36548;50.506;30.834;2023-05-19T07:31:51;4.35;;;3.58;;
50591;SDS011;36548;50.506;30.834;2023-05-19T07:33:08;4.30;;;3.65;;
50591;SDS011;36548;50.506;30.834;2023-05-19T07:34:17;4.40;;;3.73;;
50591;SDS011;36548;50.506;30.834;2023-05-19T07:35:32;4.83;;;3.52;;
50591;SDS011;36548;50.506;30.834;2023-05-19T07:36:41;5.17;;;3.82;;
50591;SDS011;36548;50.506;30.834;2023-05-19T07:37:57;9.68;;;4.43;;
50591;SDS011;36548;50.506;30.834;2023-05-19T07:39:06;5.00;;;3.78;;
50591;SDS011;36548;50.506;30.834;2023-05-19T07:40:21;5.37;;;3.93;;
50591;SDS011;36548;50.506;30.834;2023-05-19T07:41:31;4.85;;;4.00;;
50591;SDS011;36548;50.506;30.834;2023-05-19T07:42:48;5.20;;;3.47;;
50591;SDS011;36548;50.506;30.834;2023-05-19T07:43:58;5.80;;;3.42;;
50591;SDS011;36548;50.506;30.834;2023-05-19T07:45:14;6.35;;;3.48;;
50591;SDS011;36548;50.506;30.834;2023-05-19T07:46:23;4.08;;;3.45;;
50591;SDS011;36548;50.506;30.834;2023-05-19T07:47:58;5.55;;;3.45;;
50591;SDS011;36548;50.506;30.834;2023-05-19T07:49:09;4.60;;;3.70;;
50591;SDS011;36548;50.506;30.834;2023-05-19T07:51:29;6.70;;;3.95;;
50591;SDS011;36548;50.506;30.834;2023-05-19T07:52:45;4.52;;;3.55;;